sensor_id;sensor_type;location;lat;lon;timestamp;temperature;humidity
4054;DHT22;2042;47.956;9.222;2022-12-01T00:00:45;1.70;19.00
4054;DHT22;2042;47.956;9.222;2022-12-01T00:03:11;1.70;18.70
4054;DHT22;2042;47.956;9.222;2022-12-01T00:05:37;1.70;18.80
4054;DHT22;2042;47.956;9.222;2022-12-01T00:08:03;1.70;18.80
4054;DHT22;2042;47.956;9.222;2022-12-01T00:10:32;1.70;18.80
4054;DHT22;2042;47.956;9.222;2022-12-01T00:13:00;1.70;18.80
4054;DHT22;2042;47.956;9.222;2022-12-01T00:15:29;1.70;18.80
4054;DHT22;2042;47.956;9.222;2022-12-01T00:17:56;1.70;18.90
4054;DHT22;2042;47.956;9.222;2022-12-01T00:20:22;1.70;18.80
4054;DHT22;2042;47.956;9.222;2022-12-01T00:22:48;1.70;20.50
4054;DHT22;2042;47.956;9.222;2022-12-01T00:25:15;1.70;20.50
4054;DHT22;2042;47.956;9.222;2022-12-01T00:27:41;1.70;20.50
4054;DHT22;2042;47.956;9.222;2022-12-01T00:30:10;1.70;20.60
4054;DHT22;2042;47.956;9.222;2022-12-01T00:32:36;1.70;20.50
4054;DHT22;2042;47.956;9.222;2022-12-01T00:35:03;1.70;20.50
4054;DHT22;2042;47.956;9.222;2022-12-01T00:37:30;1.70;20.50
4054;DHT22;2042;47.956;9.222;2022-12-01T00:39:57;1.70;20.50
4054;DHT22;2042;47.956;9.222;2022-12-01T00:42:23;1.70;20.50
4054;DHT22;2042;47.956;9.222;2022-12-01T00:44:49;1.60;20.40
4054;DHT22;2042;47.956;9.222;2022-12-01T00:47:15;1.60;20.50
4054;DHT22;2042;47.956;9.222;2022-12-01T00:49:40;1.60;20.50
4054;DHT22;2042;47.956;9.222;2022-12-01T00:52:06;1.60;20.50
4054;DHT22;2042;47.956;9.222;2022-12-01T00:54:32;1.60;20.50
4054;DHT22;2042;47.956;9.222;2022-12-01T00:56:58;1.60;20.50
4054;DHT22;2042;47.956;9.222;2022-12-01T00:59:24;1.60;20.50
4054;DHT22;2042;47.956;9.222;2022-12-01T01:01:50;1.60;20.50
4054;DHT22;2042;47.956;9.222;2022-12-01T01:04:16;1.60;20.50
4054;DHT22;2042;47.956;9.222;2022-12-01T01:06:41;1.60;20.50
4054;DHT22;2042;47.956;9.222;2022-12-01T01:09:11;1.60;20.40
4054;DHT22;2042;47.956;9.222;2022-12-01T01:11:37;1.60;20.40
4054;DHT22;2042;47.956;9.222;2022-12-01T01:14:03;1.60;20.40
4054;DHT22;2042;47.956;9.222;2022-12-01T01:16:28;1.50;20.20
4054;DHT22;2042;47.956;9.222;2022-12-01T01:18:54;1.50;20.20
4054;DHT22;2042;47.956;9.222;2022-12-01T01:21:21;1.40;20.10
4054;DHT22;2042;47.956;9.222;2022-12-01T01:23:48;1.40;20.00
4054;DHT22;2042;47.956;9.222;2022-12-01T01:26:20;1.40;19.90
4054;DHT22;2042;47.956;9.222;2022-12-01T01:28:47;1.30;19.70
4054;DHT22;2042;47.956;9.222;2022-12-01T01:31:15;1.30;19.60
4054;DHT22;2042;47.956;9.222;2022-12-01T01:33:42;1.30;19.50
4054;DHT22;2042;47.956;9.222;2022-12-01T01:36:08;1.30;19.40
4054;DHT22;2042;47.956;9.222;2022-12-01T01:38:34;1.20;19.40
4054;DHT22;2042;47.956;9.222;2022-12-01T01:41:00;1.20;19.30
4054;DHT22;2042;47.956;9.222;2022-12-01T01:48:49;1.20;19.20
4054;DHT22;2042;47.956;9.222;2022-12-01T01:51:16;1.20;19.20
4054;DHT22;2042;47.956;9.222;2022-12-01T01:53:44;1.20;19.20
4054;DHT22;2042;47.956;9.222;2022-12-01T01:56:11;1.20;19.20
4054;DHT22;2042;47.956;9.222;2022-12-01T01:58:37;1.20;19.10
4054;DHT22;2042;47.956;9.222;2022-12-01T02:01:04;1.20;19.20
4054;DHT22;2042;47.956;9.222;2022-12-01T02:03:31;1.20;19.20
4054;DHT22;2042;47.956;9.222;2022-12-01T02:05:58;1.20;19.20
4054;DHT22;2042;47.956;9.222;2022-12-01T02:08:24;1.20;19.20
4054;DHT22;2042;47.956;9.222;2022-12-01T02:13:49;1.20;19.20
4054;DHT22;2042;47.956;9.222;2022-12-01T02:25:19;1.20;19.20
4054;DHT22;2042;47.956;9.222;2022-12-01T02:33:25;1.20;19.10
4054;DHT22;2042;47.956;9.222;2022-12-01T02:36:02;1.20;19.10
4054;DHT22;2042;47.956;9.222;2022-12-01T02:38:53;1.20;19.10
4054;DHT22;2042;47.956;9.222;2022-12-01T02:41:42;1.10;19.00
4054;DHT22;2042;47.956;9.222;2022-12-01T02:44:20;1.10;19.00
4054;DHT22;2042;47.956;9.222;2022-12-01T02:46:56;1.10;19.00
4054;DHT22;2042;47.956;9.222;2022-12-01T02:49:32;1.10;19.00
4054;DHT22;2042;47.956;9.222;2022-12-01T02:51:59;1.20;19.10
4054;DHT22;2042;47.956;9.222;2022-12-01T02:54:29;1.10;19.00
4054;DHT22;2042;47.956;9.222;2022-12-01T02:56:55;1.10;19.00
4054;DHT22;2042;47.956;9.222;2022-12-01T02:59:21;1.10;19.00
4054;DHT22;2042;47.956;9.222;2022-12-01T03:18:45;1.10;18.90
4054;DHT22;2042;47.956;9.222;2022-12-01T03:21:19;1.10;18.90
4054;DHT22;2042;47.956;9.222;2022-12-01T03:23:58;1.10;18.70
4054;DHT22;2042;47.956;9.222;2022-12-01T03:26:28;1.10;18.70
4054;DHT22;2042;47.956;9.222;2022-12-01T03:28:59;1.10;18.60
4054;DHT22;2042;47.956;9.222;2022-12-01T03:31:31;1.10;18.60
4054;DHT22;2042;47.956;9.222;2022-12-01T03:34:42;1.10;18.50
4054;DHT22;2042;47.956;9.222;2022-12-01T03:37:17;1.10;18.60
4054;DHT22;2042;47.956;9.222;2022-12-01T03:39:46;1.10;18.50
4054;DHT22;2042;47.956;9.222;2022-12-01T03:42:19;1.10;18.60
4054;DHT22;2042;47.956;9.222;2022-12-01T03:44:50;1.10;18.50
4054;DHT22;2042;47.956;9.222;2022-12-01T03:47:36;1.10;18.50
4054;DHT22;2042;47.956;9.222;2022-12-01T03:50:05;1.10;18.50
4054;DHT22;2042;47.956;9.222;2022-12-01T03:55:26;1.10;18.50
4054;DHT22;2042;47.956;9.222;2022-12-01T03:57:55;1.10;18.40
4054;DHT22;2042;47.956;9.222;2022-12-01T04:00:22;1.10;18.50
4054;DHT22;2042;47.956;9.222;2022-12-01T04:02:56;1.10;18.60
4054;DHT22;2042;47.956;9.222;2022-12-01T04:05:23;1.20;18.90
4054;DHT22;2042;47.956;9.222;2022-12-01T04:07:48;1.10;18.70
4054;DHT22;2042;47.956;9.222;2022-12-01T04:10:14;1.10;18.80
4054;DHT22;2042;47.956;9.222;2022-12-01T04:12:40;1.20;18.90
4054;DHT22;2042;47.956;9.222;2022-12-01T04:15:08;1.20;19.00
4054;DHT22;2042;47.956;9.222;2022-12-01T04:17:35;1.20;19.00
4054;DHT22;2042;47.956;9.222;2022-12-01T04:20:03;1.20;19.00
4054;DHT22;2042;47.956;9.222;2022-12-01T04:22:31;1.20;19.00
4054;DHT22;2042;47.956;9.222;2022-12-01T04:24:57;1.20;18.90
4054;DHT22;2042;47.956;9.222;2022-12-01T04:27:23;1.20;19.50
4054;DHT22;2042;47.956;9.222;2022-12-01T04:29:48;1.20;19.00
4054;DHT22;2042;47.956;9.222;2022-12-01T04:32:14;1.10;18.90
4054;DHT22;2042;47.956;9.222;2022-12-01T04:34:39;1.20;19.00
4054;DHT22;2042;47.956;9.222;2022-12-01T04:37:05;1.20;19.00
4054;DHT22;2042;47.956;9.222;2022-12-01T04:39:32;1.20;19.00
4054;DHT22;2042;47.956;9.222;2022-12-01T04:41:58;1.20;19.00
4054;DHT22;2042;47.956;9.222;2022-12-01T04:44:23;1.10;18.90
4054;DHT22;2042;47.956;9.222;2022-12-01T04:46:50;1.10;18.90
4054;DHT22;2042;47.956;9.222;2022-12-01T04:49:17;1.10;18.90
4054;DHT22;2042;47.956;9.222;2022-12-01T04:51:43;1.10;18.90
4054;DHT22;2042;47.956;9.222;2022-12-01T04:54:09;1.10;18.90
4054;DHT22;2042;47.956;9.222;2022-12-01T04:56:34;1.10;18.90
4054;DHT22;2042;47.956;9.222;2022-12-01T04:59:00;1.00;18.90
4054;DHT22;2042;47.956;9.222;2022-12-01T05:01:26;1.00;18.90
4054;DHT22;2042;47.956;9.222;2022-12-01T05:03:52;1.00;18.90
4054;DHT22;2042;47.956;9.222;2022-12-01T05:06:20;1.00;18.90
4054;DHT22;2042;47.956;9.222;2022-12-01T05:08:47;1.00;18.90
4054;DHT22;2042;47.956;9.222;2022-12-01T05:11:13;1.00;19.00
4054;DHT22;2042;47.956;9.222;2022-12-01T05:13:41;1.00;19.00
4054;DHT22;2042;47.956;9.222;2022-12-01T05:16:12;1.00;19.00
4054;DHT22;2042;47.956;9.222;2022-12-01T05:18:39;1.00;19.00
4054;DHT22;2042;47.956;9.222;2022-12-01T05:21:06;1.00;19.00
4054;DHT22;2042;47.956;9.222;2022-12-01T05:23:33;1.00;19.00
4054;DHT22;2042;47.956;9.222;2022-12-01T05:26:00;1.00;19.00
4054;DHT22;2042;47.956;9.222;2022-12-01T05:28:26;1.00;19.00
4054;DHT22;2042;47.956;9.222;2022-12-01T05:30:53;1.10;19.00
4054;DHT22;2042;47.956;9.222;2022-12-01T05:33:23;1.10;19.00
4054;DHT22;2042;47.956;9.222;2022-12-01T05:35:49;1.10;19.10
4054;DHT22;2042;47.956;9.222;2022-12-01T05:38:15;1.10;19.10
4054;DHT22;2042;47.956;9.222;2022-12-01T05:40:41;1.10;19.10
4054;DHT22;2042;47.956;9.222;2022-12-01T05:43:07;1.10;19.10
4054;DHT22;2042;47.956;9.222;2022-12-01T05:45:33;1.10;19.20
4054;DHT22;2042;47.956;9.222;2022-12-01T05:47:59;1.20;19.30
4054;DHT22;2042;47.956;9.222;2022-12-01T05:50:27;1.20;19.30
4054;DHT22;2042;47.956;9.222;2022-12-01T05:52:53;1.20;19.40
4054;DHT22;2042;47.956;9.222;2022-12-01T05:55:19;1.20;19.40
4054;DHT22;2042;47.956;9.222;2022-12-01T05:57:45;1.20;19.40
4054;DHT22;2042;47.956;9.222;2022-12-01T06:00:12;1.20;19.50
4054;DHT22;2042;47.956;9.222;2022-12-01T06:02:40;1.20;19.50
4054;DHT22;2042;47.956;9.222;2022-12-01T06:05:06;1.20;19.50
4054;DHT22;2042;47.956;9.222;2022-12-01T06:07:32;1.20;19.60
4054;DHT22;2042;47.956;9.222;2022-12-01T06:10:00;1.20;19.70
4054;DHT22;2042;47.956;9.222;2022-12-01T06:12:26;1.20;19.70
4054;DHT22;2042;47.956;9.222;2022-12-01T06:14:52;1.20;19.70
4054;DHT22;2042;47.956;9.222;2022-12-01T06:17:18;1.20;19.70
4054;DHT22;2042;47.956;9.222;2022-12-01T06:19:43;1.20;19.80
4054;DHT22;2042;47.956;9.222;2022-12-01T06:22:09;1.20;19.80
4054;DHT22;2042;47.956;9.222;2022-12-01T06:24:35;1.20;19.80
4054;DHT22;2042;47.956;9.222;2022-12-01T06:27:01;1.20;19.80
4054;DHT22;2042;47.956;9.222;2022-12-01T06:29:27;1.20;19.80
4054;DHT22;2042;47.956;9.222;2022-12-01T06:31:52;1.20;19.90
4054;DHT22;2042;47.956;9.222;2022-12-01T06:34:18;1.20;19.90
4054;DHT22;2042;47.956;9.222;2022-12-01T06:36:43;1.20;19.90
4054;DHT22;2042;47.956;9.222;2022-12-01T06:39:09;1.20;20.00
4054;DHT22;2042;47.956;9.222;2022-12-01T06:41:36;1.20;20.00
4054;DHT22;2042;47.956;9.222;2022-12-01T06:44:02;1.20;20.00
4054;DHT22;2042;47.956;9.222;2022-12-01T06:46:27;1.20;20.00
4054;DHT22;2042;47.956;9.222;2022-12-01T06:48:53;1.20;20.00
4054;DHT22;2042;47.956;9.222;2022-12-01T06:51:19;1.20;20.00
4054;DHT22;2042;47.956;9.222;2022-12-01T06:53:45;1.20;20.10
4054;DHT22;2042;47.956;9.222;2022-12-01T06:56:10;1.30;20.20
4054;DHT22;2042;47.956;9.222;2022-12-01T06:58:36;1.30;20.30
4054;DHT22;2042;47.956;9.222;2022-12-01T07:01:10;1.20;20.10
4054;DHT22;2042;47.956;9.222;2022-12-01T07:03:36;1.20;20.20
4054;DHT22;2042;47.956;9.222;2022-12-01T07:06:02;1.20;20.10
4054;DHT22;2042;47.956;9.222;2022-12-01T07:08:29;1.20;20.20
4054;DHT22;2042;47.956;9.222;2022-12-01T07:10:59;1.20;20.20
4054;DHT22;2042;47.956;9.222;2022-12-01T07:13:25;1.20;20.20
4054;DHT22;2042;47.956;9.222;2022-12-01T07:15:50;1.20;20.20
4054;DHT22;2042;47.956;9.222;2022-12-01T07:18:16;1.20;20.20
4054;DHT22;2042;47.956;9.222;2022-12-01T07:20:42;1.20;20.20
4054;DHT22;2042;47.956;9.222;2022-12-01T07:23:07;1.20;20.20
4054;DHT22;2042;47.956;9.222;2022-12-01T07:25:33;1.20;20.10
4054;DHT22;2042;47.956;9.222;2022-12-01T07:27:58;1.20;20.10
4054;DHT22;2042;47.956;9.222;2022-12-01T07:30:24;1.20;20.10
4054;DHT22;2042;47.956;9.222;2022-12-01T07:32:50;1.20;20.10
4054;DHT22;2042;47.956;9.222;2022-12-01T07:35:20;1.20;20.10
4054;DHT22;2042;47.956;9.222;2022-12-01T07:37:46;1.30;20.20
4054;DHT22;2042;47.956;9.222;2022-12-01T07:40:11;1.30;20.10
4054;DHT22;2042;47.956;9.222;2022-12-01T07:42:41;1.30;20.10
4054;DHT22;2042;47.956;9.222;2022-12-01T07:45:07;1.30;20.10
4054;DHT22;2042;47.956;9.222;2022-12-01T07:47:32;1.30;20.00
4054;DHT22;2042;47.956;9.222;2022-12-01T07:49:58;1.30;19.90
4054;DHT22;2042;47.956;9.222;2022-12-01T07:52:24;1.30;19.80
4054;DHT22;2042;47.956;9.222;2022-12-01T07:54:50;1.30;19.80
4054;DHT22;2042;47.956;9.222;2022-12-01T07:57:15;1.30;19.80
4054;DHT22;2042;47.956;9.222;2022-12-01T07:59:42;1.40;19.90
4054;DHT22;2042;47.956;9.222;2022-12-01T08:02:09;1.40;19.80
4054;DHT22;2042;47.956;9.222;2022-12-01T08:04:35;1.40;19.80
4054;DHT22;2042;47.956;9.222;2022-12-01T08:07:00;1.40;19.70
4054;DHT22;2042;47.956;9.222;2022-12-01T08:09:26;1.40;19.60
4054;DHT22;2042;47.956;9.222;2022-12-01T08:11:52;1.50;19.70
4054;DHT22;2042;47.956;9.222;2022-12-01T08:14:17;1.50;19.60
4054;DHT22;2042;47.956;9.222;2022-12-01T08:16:47;1.50;19.50
4054;DHT22;2042;47.956;9.222;2022-12-01T08:19:13;1.50;19.40
4054;DHT22;2042;47.956;9.222;2022-12-01T08:21:38;1.50;19.30
4054;DHT22;2042;47.956;9.222;2022-12-01T08:24:04;1.50;19.30
4054;DHT22;2042;47.956;9.222;2022-12-01T08:26:30;1.50;19.30
4054;DHT22;2042;47.956;9.222;2022-12-01T08:28:56;1.50;19.20
4054;DHT22;2042;47.956;9.222;2022-12-01T08:33:48;1.50;18.90
4054;DHT22;2042;47.956;9.222;2022-12-01T08:36:15;1.50;18.70
4054;DHT22;2042;47.956;9.222;2022-12-01T08:38:45;1.50;18.40
4054;DHT22;2042;47.956;9.222;2022-12-01T08:41:12;1.50;18.10
4054;DHT22;2042;47.956;9.222;2022-12-01T08:43:38;1.50;17.90
4054;DHT22;2042;47.956;9.222;2022-12-01T08:46:06;1.50;17.40
4054;DHT22;2042;47.956;9.222;2022-12-01T08:48:32;1.50;17.20
4054;DHT22;2042;47.956;9.222;2022-12-01T08:51:06;1.60;17.00
4054;DHT22;2042;47.956;9.222;2022-12-01T08:53:34;1.60;17.40
4054;DHT22;2042;47.956;9.222;2022-12-01T08:56:03;1.60;16.70
4054;DHT22;2042;47.956;9.222;2022-12-01T08:58:29;1.60;16.60
4054;DHT22;2042;47.956;9.222;2022-12-01T09:01:05;1.70;16.40
4054;DHT22;2042;47.956;9.222;2022-12-01T09:03:36;1.70;16.00
4054;DHT22;2042;47.956;9.222;2022-12-01T09:06:08;1.70;16.00
4054;DHT22;2042;47.956;9.222;2022-12-01T09:08:35;1.70;15.90
4054;DHT22;2042;47.956;9.222;2022-12-01T09:11:06;1.70;15.70
4054;DHT22;2042;47.956;9.222;2022-12-01T09:13:34;1.80;15.40
4054;DHT22;2042;47.956;9.222;2022-12-01T09:16:03;1.80;15.30
4054;DHT22;2042;47.956;9.222;2022-12-01T09:18:29;1.80;15.10
4054;DHT22;2042;47.956;9.222;2022-12-01T09:20:56;1.80;14.80
4054;DHT22;2042;47.956;9.222;2022-12-01T09:23:22;1.80;14.70
4054;DHT22;2042;47.956;9.222;2022-12-01T09:25:49;1.90;14.70
4054;DHT22;2042;47.956;9.222;2022-12-01T09:28:15;1.90;14.50
4054;DHT22;2042;47.956;9.222;2022-12-01T09:30:43;2.00;15.00
4054;DHT22;2042;47.956;9.222;2022-12-01T09:33:09;2.00;14.30
4054;DHT22;2042;47.956;9.222;2022-12-01T09:35:35;2.10;14.30
4054;DHT22;2042;47.956;9.222;2022-12-01T09:38:00;2.10;14.30
4054;DHT22;2042;47.956;9.222;2022-12-01T09:40:39;2.20;14.00
4054;DHT22;2042;47.956;9.222;2022-12-01T09:43:13;2.20;13.40
4054;DHT22;2042;47.956;9.222;2022-12-01T09:45:45;2.30;12.60
4054;DHT22;2042;47.956;9.222;2022-12-01T09:50:57;2.30;11.90
4054;DHT22;2042;47.956;9.222;2022-12-01T09:53:25;2.30;11.50
4054;DHT22;2042;47.956;9.222;2022-12-01T09:55:54;2.40;11.20
4054;DHT22;2042;47.956;9.222;2022-12-01T09:58:25;2.50;11.00
4054;DHT22;2042;47.956;9.222;2022-12-01T10:00:54;2.50;10.40
4054;DHT22;2042;47.956;9.222;2022-12-01T10:03:39;2.60;9.50
4054;DHT22;2042;47.956;9.222;2022-12-01T10:06:20;2.70;8.10
4054;DHT22;2042;47.956;9.222;2022-12-01T10:11:39;2.80;3.40
4054;DHT22;2042;47.956;9.222;2022-12-01T10:14:13;2.80;1.00
4054;DHT22;2042;47.956;9.222;2022-12-01T10:17:01;3.00;1.00
4054;DHT22;2042;47.956;9.222;2022-12-01T10:19:53;3.10;1.00
4054;DHT22;2042;47.956;9.222;2022-12-01T10:34:22;3.70;1.00
4054;DHT22;2042;47.956;9.222;2022-12-01T10:36:49;3.60;1.00
4054;DHT22;2042;47.956;9.222;2022-12-01T10:39:24;3.60;1.00
4054;DHT22;2042;47.956;9.222;2022-12-01T10:41:50;3.60;1.00
4054;DHT22;2042;47.956;9.222;2022-12-01T10:44:17;3.60;1.00
4054;DHT22;2042;47.956;9.222;2022-12-01T10:46:54;3.70;1.00
4054;DHT22;2042;47.956;9.222;2022-12-01T10:49:38;3.90;1.00
4054;DHT22;2042;47.956;9.222;2022-12-01T10:52:04;4.00;1.00
4054;DHT22;2042;47.956;9.222;2022-12-01T10:54:37;4.00;1.00
4054;DHT22;2042;47.956;9.222;2022-12-01T10:57:04;4.10;1.00
4054;DHT22;2042;47.956;9.222;2022-12-01T11:02:42;4.00;1.00
4054;DHT22;2042;47.956;9.222;2022-12-01T11:05:25;4.00;1.00
4054;DHT22;2042;47.956;9.222;2022-12-01T11:07:52;4.00;1.00
4054;DHT22;2042;47.956;9.222;2022-12-01T11:15:33;4.10;1.00
4054;DHT22;2042;47.956;9.222;2022-12-01T11:18:37;4.10;1.00
4054;DHT22;2042;47.956;9.222;2022-12-01T11:21:11;4.10;1.00
4054;DHT22;2042;47.956;9.222;2022-12-01T11:23:48;4.20;1.00
4054;DHT22;2042;47.956;9.222;2022-12-01T11:29:03;4.40;1.00
4054;DHT22;2042;47.956;9.222;2022-12-01T11:31:40;4.40;1.00
4054;DHT22;2042;47.956;9.222;2022-12-01T11:34:19;4.40;1.00
4054;DHT22;2042;47.956;9.222;2022-12-01T11:36:58;4.40;1.00
4054;DHT22;2042;47.956;9.222;2022-12-01T11:39:38;4.40;1.00
4054;DHT22;2042;47.956;9.222;2022-12-01T11:42:24;4.30;1.00
4054;DHT22;2042;47.956;9.222;2022-12-01T11:47:30;4.20;1.00
4054;DHT22;2042;47.956;9.222;2022-12-01T11:50:21;4.20;1.00
4054;DHT22;2042;47.956;9.222;2022-12-01T11:52:47;4.30;1.00
4054;DHT22;2042;47.956;9.222;2022-12-01T11:57:41;4.40;1.00
4054;DHT22;2042;47.956;9.222;2022-12-01T12:00:14;4.40;1.00
4054;DHT22;2042;47.956;9.222;2022-12-01T12:08:29;4.40;1.00
4054;DHT22;2042;47.956;9.222;2022-12-01T12:19:21;4.40;1.00
4054;DHT22;2042;47.956;9.222;2022-12-01T12:22:16;4.40;1.00
4054;DHT22;2042;47.956;9.222;2022-12-01T12:27:40;4.50;1.00
4054;DHT22;2042;47.956;9.222;2022-12-01T12:30:23;4.60;1.00
4054;DHT22;2042;47.956;9.222;2022-12-01T12:33:28;4.70;1.00
4054;DHT22;2042;47.956;9.222;2022-12-01T12:36:18;4.70;1.00
4054;DHT22;2042;47.956;9.222;2022-12-01T12:39:18;4.60;1.00
4054;DHT22;2042;47.956;9.222;2022-12-01T12:41:52;4.50;1.00
4054;DHT22;2042;47.956;9.222;2022-12-01T12:44:38;4.40;1.00
4054;DHT22;2042;47.956;9.222;2022-12-01T12:49:38;4.20;1.00
4054;DHT22;2042;47.956;9.222;2022-12-01T12:52:15;4.20;1.00
4054;DHT22;2042;47.956;9.222;2022-12-01T12:57:32;4.20;1.00
4054;DHT22;2042;47.956;9.222;2022-12-01T13:05:53;4.70;1.00
4054;DHT22;2042;47.956;9.222;2022-12-01T13:13:19;4.80;1.00
4054;DHT22;2042;47.956;9.222;2022-12-01T13:15:49;4.80;1.00
4054;DHT22;2042;47.956;9.222;2022-12-01T13:18:25;4.70;1.00
4054;DHT22;2042;47.956;9.222;2022-12-01T13:20:54;4.60;1.00
4054;DHT22;2042;47.956;9.222;2022-12-01T13:23:20;4.50;1.00
4054;DHT22;2042;47.956;9.222;2022-12-01T13:25:52;4.50;1.00
4054;DHT22;2042;47.956;9.222;2022-12-01T13:31:12;4.50;1.00
4054;DHT22;2042;47.956;9.222;2022-12-01T13:33:52;4.40;1.00
4054;DHT22;2042;47.956;9.222;2022-12-01T13:36:18;4.40;1.00
4054;DHT22;2042;47.956;9.222;2022-12-01T13:39:15;4.50;1.00
4054;DHT22;2042;47.956;9.222;2022-12-01T13:41:38;4.40;1.00
4054;DHT22;2042;47.956;9.222;2022-12-01T13:44:18;4.40;1.00
4054;DHT22;2042;47.956;9.222;2022-12-01T13:49:34;4.40;1.00
4054;DHT22;2042;47.956;9.222;2022-12-01T14:02:27;4.10;1.00
4054;DHT22;2042;47.956;9.222;2022-12-01T14:04:53;4.00;1.00
4054;DHT22;2042;47.956;9.222;2022-12-01T14:09:48;3.70;1.00
4054;DHT22;2042;47.956;9.222;2022-12-01T14:12:28;3.50;1.00
4054;DHT22;2042;47.956;9.222;2022-12-01T14:15:00;3.30;1.00
4054;DHT22;2042;47.956;9.222;2022-12-01T14:17:29;3.30;1.00
4054;DHT22;2042;47.956;9.222;2022-12-01T14:20:07;3.20;1.00
4054;DHT22;2042;47.956;9.222;2022-12-01T14:22:44;3.10;1.00
4054;DHT22;2042;47.956;9.222;2022-12-01T14:25:22;3.00;1.00
4054;DHT22;2042;47.956;9.222;2022-12-01T14:27:51;2.90;1.00
4054;DHT22;2042;47.956;9.222;2022-12-01T14:39:17;2.70;1.00
4054;DHT22;2042;47.956;9.222;2022-12-01T14:41:45;2.70;1.00
4054;DHT22;2042;47.956;9.222;2022-12-01T14:49:41;2.60;1.00
4054;DHT22;2042;47.956;9.222;2022-12-01T14:54:55;2.60;1.00
4054;DHT22;2042;47.956;9.222;2022-12-01T14:57:31;2.50;1.00
4054;DHT22;2042;47.956;9.222;2022-12-01T15:00:19;2.50;1.00
4054;DHT22;2042;47.956;9.222;2022-12-01T15:05:29;2.50;1.00
4054;DHT22;2042;47.956;9.222;2022-12-01T15:07:57;2.50;1.00
4054;DHT22;2042;47.956;9.222;2022-12-01T15:10:29;2.50;1.00
4054;DHT22;2042;47.956;9.222;2022-12-01T15:13:19;2.40;1.00
4054;DHT22;2042;47.956;9.222;2022-12-01T15:15:52;2.40;1.00
4054;DHT22;2042;47.956;9.222;2022-12-01T15:18:32;2.40;1.00
4054;DHT22;2042;47.956;9.222;2022-12-01T15:23:35;2.30;1.00
4054;DHT22;2042;47.956;9.222;2022-12-01T15:26:00;2.30;1.00
4054;DHT22;2042;47.956;9.222;2022-12-01T15:28:34;2.20;1.00
4054;DHT22;2042;47.956;9.222;2022-12-01T15:31:06;2.20;1.00
4054;DHT22;2042;47.956;9.222;2022-12-01T15:33:34;2.20;1.00
4054;DHT22;2042;47.956;9.222;2022-12-01T15:36:02;2.20;1.00
4054;DHT22;2042;47.956;9.222;2022-12-01T15:38:30;2.20;1.00
4054;DHT22;2042;47.956;9.222;2022-12-01T15:40:58;2.10;1.00
4054;DHT22;2042;47.956;9.222;2022-12-01T15:43:31;2.10;1.00
4054;DHT22;2042;47.956;9.222;2022-12-01T15:46:02;2.10;1.00
4054;DHT22;2042;47.956;9.222;2022-12-01T15:48:35;2.10;1.00
4054;DHT22;2042;47.956;9.222;2022-12-01T15:51:17;2.10;1.00
4054;DHT22;2042;47.956;9.222;2022-12-01T15:53:50;2.10;1.00
4054;DHT22;2042;47.956;9.222;2022-12-01T15:56:25;2.10;1.00
4054;DHT22;2042;47.956;9.222;2022-12-01T15:58:55;2.10;1.00
4054;DHT22;2042;47.956;9.222;2022-12-01T16:01:28;2.10;1.00
4054;DHT22;2042;47.956;9.222;2022-12-01T16:04:04;2.10;1.00
4054;DHT22;2042;47.956;9.222;2022-12-01T16:06:35;2.10;1.00
4054;DHT22;2042;47.956;9.222;2022-12-01T16:09:06;2.10;1.00
4054;DHT22;2042;47.956;9.222;2022-12-01T16:12:11;2.10;1.00
4054;DHT22;2042;47.956;9.222;2022-12-01T16:17:45;2.10;1.00
4054;DHT22;2042;47.956;9.222;2022-12-01T16:20:30;2.10;1.00
4054;DHT22;2042;47.956;9.222;2022-12-01T16:23:09;2.10;1.00
4054;DHT22;2042;47.956;9.222;2022-12-01T16:25:38;2.20;1.00
4054;DHT22;2042;47.956;9.222;2022-12-01T16:28:05;2.20;1.00
4054;DHT22;2042;47.956;9.222;2022-12-01T16:30:37;2.20;1.00
4054;DHT22;2042;47.956;9.222;2022-12-01T16:33:15;2.20;1.00
4054;DHT22;2042;47.956;9.222;2022-12-01T16:35:41;2.20;1.00
4054;DHT22;2042;47.956;9.222;2022-12-01T16:38:19;2.10;1.00
4054;DHT22;2042;47.956;9.222;2022-12-01T16:40:48;2.10;1.00
4054;DHT22;2042;47.956;9.222;2022-12-01T16:43:16;2.10;1.20
4054;DHT22;2042;47.956;9.222;2022-12-01T16:45:44;2.10;1.70
4054;DHT22;2042;47.956;9.222;2022-12-01T16:48:10;2.00;2.20
4054;DHT22;2042;47.956;9.222;2022-12-01T16:50:36;2.00;2.70
4054;DHT22;2042;47.956;9.222;2022-12-01T16:53:02;2.00;3.30
4054;DHT22;2042;47.956;9.222;2022-12-01T16:58:04;1.90;4.00
4054;DHT22;2042;47.956;9.222;2022-12-01T17:00:30;1.90;4.30
4054;DHT22;2042;47.956;9.222;2022-12-01T17:02:56;1.90;4.70
4054;DHT22;2042;47.956;9.222;2022-12-01T17:05:22;1.90;4.90
4054;DHT22;2042;47.956;9.222;2022-12-01T17:07:47;1.90;5.30
4054;DHT22;2042;47.956;9.222;2022-12-01T17:10:13;1.90;5.80
4054;DHT22;2042;47.956;9.222;2022-12-01T17:12:39;1.90;6.10
4054;DHT22;2042;47.956;9.222;2022-12-01T17:15:06;1.90;6.60
4054;DHT22;2042;47.956;9.222;2022-12-01T17:17:32;1.90;7.20
4054;DHT22;2042;47.956;9.222;2022-12-01T17:19:57;1.90;7.60
4054;DHT22;2042;47.956;9.222;2022-12-01T17:22:23;1.90;7.90
4054;DHT22;2042;47.956;9.222;2022-12-01T17:24:49;1.80;8.30
4054;DHT22;2042;47.956;9.222;2022-12-01T17:27:15;1.80;8.50
4054;DHT22;2042;47.956;9.222;2022-12-01T17:29:41;1.90;8.80
4054;DHT22;2042;47.956;9.222;2022-12-01T17:32:07;1.80;9.00
4054;DHT22;2042;47.956;9.222;2022-12-01T17:34:33;1.80;9.50
4054;DHT22;2042;47.956;9.222;2022-12-01T17:36:59;1.80;9.70
4054;DHT22;2042;47.956;9.222;2022-12-01T17:39:25;1.80;10.10
4054;DHT22;2042;47.956;9.222;2022-12-01T17:41:53;1.80;10.90
4054;DHT22;2042;47.956;9.222;2022-12-01T17:44:18;1.80;10.60
4054;DHT22;2042;47.956;9.222;2022-12-01T17:46:44;1.80;11.00
4054;DHT22;2042;47.956;9.222;2022-12-01T17:49:10;1.90;11.50
4054;DHT22;2042;47.956;9.222;2022-12-01T17:51:38;1.80;11.70
4054;DHT22;2042;47.956;9.222;2022-12-01T17:54:04;1.80;12.40
4054;DHT22;2042;47.956;9.222;2022-12-01T17:56:30;1.80;12.10
4054;DHT22;2042;47.956;9.222;2022-12-01T17:58:56;1.80;12.10
4054;DHT22;2042;47.956;9.222;2022-12-01T18:01:21;1.80;12.10
4054;DHT22;2042;47.956;9.222;2022-12-01T18:03:48;1.80;12.20
4054;DHT22;2042;47.956;9.222;2022-12-01T18:06:14;1.80;12.20
4054;DHT22;2042;47.956;9.222;2022-12-01T18:08:41;1.70;12.20
4054;DHT22;2042;47.956;9.222;2022-12-01T18:11:09;1.70;12.30
4054;DHT22;2042;47.956;9.222;2022-12-01T18:13:44;1.80;12.50
4054;DHT22;2042;47.956;9.222;2022-12-01T18:16:23;1.70;12.60
4054;DHT22;2042;47.956;9.222;2022-12-01T18:18:49;1.70;12.80
4054;DHT22;2042;47.956;9.222;2022-12-01T18:21:17;1.70;13.20
4054;DHT22;2042;47.956;9.222;2022-12-01T18:26:16;1.80;13.60
4054;DHT22;2042;47.956;9.222;2022-12-01T18:28:42;1.70;13.60
4054;DHT22;2042;47.956;9.222;2022-12-01T18:31:10;1.80;13.90
4054;DHT22;2042;47.956;9.222;2022-12-01T18:33:38;1.80;14.00
4054;DHT22;2042;47.956;9.222;2022-12-01T18:36:08;1.80;14.20
4054;DHT22;2042;47.956;9.222;2022-12-01T18:38:36;1.80;14.40
4054;DHT22;2042;47.956;9.222;2022-12-01T18:41:02;1.80;14.50
4054;DHT22;2042;47.956;9.222;2022-12-01T18:43:28;1.80;14.60
4054;DHT22;2042;47.956;9.222;2022-12-01T18:45:55;1.80;14.70
4054;DHT22;2042;47.956;9.222;2022-12-01T18:48:21;1.80;14.70
4054;DHT22;2042;47.956;9.222;2022-12-01T18:50:47;1.80;14.70
4054;DHT22;2042;47.956;9.222;2022-12-01T18:53:13;1.70;14.70
4054;DHT22;2042;47.956;9.222;2022-12-01T18:55:38;1.70;14.70
4054;DHT22;2042;47.956;9.222;2022-12-01T18:58:04;1.70;14.80
4054;DHT22;2042;47.956;9.222;2022-12-01T19:00:30;1.70;14.90
4054;DHT22;2042;47.956;9.222;2022-12-01T19:02:56;1.70;15.10
4054;DHT22;2042;47.956;9.222;2022-12-01T19:05:22;1.70;15.20
4054;DHT22;2042;47.956;9.222;2022-12-01T19:07:48;1.70;15.40
4054;DHT22;2042;47.956;9.222;2022-12-01T19:10:14;1.70;15.50
4054;DHT22;2042;47.956;9.222;2022-12-01T19:12:40;1.70;15.60
4054;DHT22;2042;47.956;9.222;2022-12-01T19:15:06;1.70;15.70
4054;DHT22;2042;47.956;9.222;2022-12-01T19:17:32;1.80;15.90
4054;DHT22;2042;47.956;9.222;2022-12-01T19:19:58;1.80;15.80